Spring Creek, South Dakota
Current Conditions -  °F | °C
As of 1:52 AM on Friday 24 Oct 2014 (Local Time) from KVTN Reporting Station
Clear Clear  
Wind Chill:   Ceiling: Unl
Heat Index:   Visibility: 10mi
Dew Point:   Wind: 8mph
Humidity: 79%   Direction: 230°SW
Pressure: 29.92"   Gusts: NA
Location:  43.1381°N, 100.965°W
Report Text: KVTN 240652Z AUTO 23007KT 10SM CLR 06/02 A2992 RMK AO2 SLP127 T00560022
Loading
Personal Weather Stations






























Interactive Weather Map
Tropical Storm Tracking
New forecast layout! Learn more

10-Day Weather Forecast

Advertisements
Track Severe Weather on mobile